x

Santa Monica Basin - 33nm Wsw Of Santa Monica, Ca (46025) Wave Buoy

4:50pm - Sun 26th Apr 2015 All times are PDT. -7 hours from GMT.

  • Sig Wave height 4.9ft
  • Swell Direction
  • Peak Period 6s
  • Average Period 5s
  • Wind
    7mph, 13mph gusts
  • Sea Temp 60°f
  • Air Temp 61°f
  • Sea Pressure 1013.3mb
  • Santa Monica Basin - 33nm Wsw Of Santa Monica, Ca
  • Santa Monica Basin - 33nm Wsw Of Santa Monica, Ca

More Historic Weather Station data

Upgrade to MSW Pro to gain access to the past 30 days of data for over 8000 Wavebouys and Weather Stations around the globe.

Join Pro

Comparision Forecast

View Surf forecast
   
Sun 04/26 4:50pm 5ft 6s 5s 7 13 mph 1013.3mb 60f 61f
3:50pm 5ft 6s 5s 7 9 mph 1014.2mb 59f 60f
2:50pm 4.5ft 6s 5s 13 16 mph 1015.1mb 59f 60f
1:50pm 5ft 6s 5s 11 13 mph 1015.7mb 59f 59f
12:50pm 5ft 7s 6s 11 13 mph 1016mb 59f 59f
11:50am 5.5ft 7s 6s 13 16 mph 1016.6mb 58f 59f
10:50am 5.5ft 7s 6s 13 16 mph 1017mb 58f 58f
9:50am  -   -   -  11 13 mph 1016.9mb 58f 58f
8:50am 5.5ft 7s 6s 9 11 mph 1016.5mb 58f 58f
7:50am  -   -   -  11
mph
- - 58f
6:50am 6ft 7s 6s 9 11 mph 1015.4mb 58f 58f
5:50am 6ft 7s 6s 13 16 mph 1014.7mb 59f 58f
4:50am 6ft 7s 6s 16 20 mph 1014.4mb 58f 58f
3:50am 6.5ft 7s 5s 18 22 mph 1013.6mb 58f 58f
2:50am 7.5ft 7s 5s 20 25 mph 1013.2mb 58f 58f
1:50am 7.5ft 7s 6s 20 25 mph 1013.5mb 58f 59f
12:50am 8ft 8s 6s 22 27 mph 1013.2mb 59f 58f
Sat 04/25 11:50pm 8.5ft 7s 6s 25 31 mph 1012.6mb 59f 59f
10:50pm 9ft 8s 6s 29 36 mph 1012.7mb 59f 58f
9:50pm 9ft 7s 6s 25 31 mph 1013.3mb 59f 59f
8:50pm 10ft 7s 6s 29 34 mph 1011.8mb 60f 59f
7:50pm 9ft 7s 6s 31 38 mph 1011.2mb 60f 58f
6:50pm 8.5ft 7s 5s 29 36 mph 1011.1mb 60f 58f
5:50pm 7.5ft 6s 5s 36 43 mph 1010.7mb 60f 58f
4:50pm 7ft 6s 5s 29 36 mph 1011.6mb 60f 59f
3:50pm 6ft 6s 5s 27 31 mph 1012.5mb 60f 60f
2:50pm 6ft 6s 5s 27 31 mph 1013.7mb 60f 60f
1:50pm 5.5ft 6s 5s 27 31 mph 1014.5mb 60f 60f
12:50pm 5ft 6s 5s 22 27 mph 1015.1mb 60f 60f
11:50am 5.5ft 6s 5s 22 27 mph 1015.8mb 60f 60f
10:50am 4.5ft 7s 5s 20 22 mph 1016.1mb 60f 60f
9:50am 4.5ft 6s 5s 9 13 mph 1016.2mb 60f 59f
8:50am 4ft 7s 5s 9 11 mph 1016mb 60f 58f
7:50am  -   -   -  9 11 mph 1015.8mb 61f 58f
6:50am 3.5ft 14s 5s 11 16 mph 1015.6mb 61f 58f
5:50am 3.5ft 16s 5s 11 16 mph 1015.1mb 61f 58f
4:50am 3.5ft 6s 5s 9 11 mph 1015.3mb 61f 58f
3:50am 3.5ft 6s 5s 9 11 mph 1015.5mb 61f 58f
2:50am 4ft 6s 5s 9 11 mph 1015.4mb 61f 59f
1:50am 4ft 6s 5s 11 13 mph 1015.8mb 61f 59f
12:50am 4.5ft 6s 5s 7
mph
1016.2mb 61f 59f
Fri 04/24 11:50pm 4.5ft 6s 5s  -  2 mph 1016.1mb 62f 59f
10:50pm 4.5ft 6s 5s 2 4 mph 1016.2mb 62f 59f
9:50pm 4ft 7s 5s 4 7 mph 1016.6mb 62f 59f
8:50pm 4ft 6s 6s  -  2 mph 1016.2mb 62f 59f
7:50pm 3.5ft 6s 6s 2 4 mph 1015.6mb 62f 59f
6:50pm 3.5ft 11s 6s 2 4 mph 1015.6mb 62f 60f
5:50pm 3.5ft 12s 6s 2 4 mph 1015.7mb 62f 60f
4:50pm 3.5ft 11s 7s 7 9 mph 1015.7mb 62f 60f
3:50pm 3.5ft 11s 6s 9 11 mph 1015.7mb 62f 60f
2:50pm 3.5ft 11s 7s 9 11 mph 1016mb 63f 59f
1:50pm 3.5ft 12s 6s 4 7 mph 1016.5mb 62f 59f
12:50pm 3.5ft 12s 6s 2 4 mph 1016.7mb 62f 58f
11:50am 3.5ft 12s 6s 2 4 mph 1017.1mb 61f 58f
10:50am 4ft 12s 6s 4 7 mph 1017mb 61f 57f
9:50am 3.5ft 12s 6s 7 9 mph 1016.5mb 60f 57f
8:50am  -   -   -  9 11 mph 1015.8mb 60f 57f
7:50am 3.5ft 12s 5s 9 11 mph 1015mb 60f 57f
6:50am 3.5ft 12s 5s 11 13 mph 1014.2mb 60f 57f
5:50am 3.5ft 12s 6s 11 13 mph 1014mb 61f 58f
4:50am 3.5ft 12s 6s  -  2 mph 1013.6mb 61f 58f
3:50am 3.5ft 11s 6s 2 4 mph 1013.6mb 61f 58f
2:50am 3.5ft 13s 6s 4
mph
1013.6mb 61f 58f
1:50am 3.5ft 6s 5s 2 4 mph 1013.8mb 61f 58f
12:50am 4ft 12s 5s 2 4 mph 1014.1mb 61f 58f
Thu 04/23 11:50pm 3.5ft 12s 6s 2 4 mph 1014.1mb 61f 58f
10:50pm 3.5ft 12s 6s 2 4 mph 1014.3mb 61f 58f
9:50pm 3.5ft 12s 6s 7
mph
1014.1mb 61f 58f
8:50pm 3.5ft 13s 7s 2 4 mph 1013.3mb 61f 58f
7:50pm 3.5ft 12s 7s 4 7 mph 1012.9mb 61f 59f
6:50pm 3.5ft 13s 7s 4
mph
1012.4mb 61f 58f
5:50pm 3ft 13s 6s 4 7 mph 1012.7mb 61f 59f
4:50pm 3ft 13s 7s 9
mph
1012.7mb 61f 59f
3:50pm 3ft 13s 6s 9 11 mph 1012.7mb 61f 58f
2:50pm 3ft 14s 6s 9 11 mph 1013.2mb 61f 58f
1:50pm 3.5ft 13s 6s 9 11 mph 1013.4mb 61f 58f
12:50pm 3.5ft 13s 6s 11
mph
1013.4mb 61f 58f
11:50am 3.5ft 13s 6s 9 11 mph 1013.8mb 61f 58f
10:50am 3.5ft 13s 6s 7 9 mph 1013.8mb 61f 57f
9:50am 3.5ft 14s 6s 9 11 mph 1013.8mb 61f 57f
8:50am 4ft 12s 6s 9 11 mph 1013.7mb 60f 57f
7:50am 3.5ft 14s 6s 9 13 mph 1013.3mb 60f 57f
6:50am 4ft 12s 6s 11 13 mph 1012.6mb 60f 57f
5:50am 3.5ft 13s 6s 13
mph
1012.3mb 61f 58f
4:50am 3.5ft 14s 6s  -  2 mph 1012mb 61f 58f
3:50am 3.5ft 14s 7s 4
mph
1012.1mb 61f 58f
2:50am 4ft 14s 6s 4
mph
1012.1mb 61f 58f
1:50am 4ft 12s 6s 9 11 mph 1012.1mb 61f 58f